Time;durP1;ratioP1;P1;durP2;ratioP2;P2;SDS_P1;SDS_P2;PMS_P1;PMS_P2;Temp;Humidity;BMP_temperature;BMP_pressure;BME280_temperature;BME280_humidity;BME280_pressure;Samples;Min_cycle;Max_cycle;Signal;HPM_P1;HPM_P2
2022/03/28 00:00:42;;;;;;;14.73;13.33;;;12.20;1.00;12.40;101502.00;;;;4998660;28;20454;-80
2022/03/28 00:03:11;;;;;;;13.70;12.40;;;12.20;1.00;12.40;101499.00;;;;4995005;28;21064;-80
2022/03/28 00:05:39;;;;;;;14.93;13.37;;;12.10;1.00;12.50;101503.00;;;;4996334;28;20479;-80
2022/03/28 00:08:08;;;;;;;15.03;13.50;;;12.10;1.00;12.40;101497.00;;;;4999575;28;20963;-80
2022/03/28 00:10:36;;;;;;;15.20;13.60;;;12.10;1.00;12.40;101490.00;;;;4999389;28;20449;-79
2022/03/28 00:13:05;;;;;;;14.00;12.60;;;12.00;1.00;12.30;101494.00;;;;4999106;28;20462;-81
2022/03/28 00:15:35;;;;;;;18.00;13.80;;;12.00;1.00;12.30;101495.00;;;;5001655;28;20477;-81
2022/03/28 00:18:03;;;;;;;15.77;13.27;;;12.00;1.00;12.30;101508.00;;;;4997521;28;20470;-78
2022/03/28 00:20:32;;;;;;;14.20;11.93;;;11.90;1.00;12.20;101494.00;;;;5000002;28;20556;-81
2022/03/28 00:23:00;;;;;;;16.10;12.97;;;11.90;1.00;12.20;101497.00;;;;4998552;28;20486;-80
2022/03/28 00:25:28;;;;;;;14.30;12.00;;;11.80;1.00;12.20;101500.00;;;;5018633;28;20489;-81
2022/03/28 00:27:57;;;;;;;13.60;12.30;;;11.80;1.00;12.10;101487.00;;;;5003961;28;20458;-80
2022/03/28 00:30:26;;;;;;;15.07;13.63;;;11.80;1.00;12.10;101495.00;;;;5005412;28;20540;-79
2022/03/28 00:32:55;;;;;;;14.27;12.87;;;11.70;1.00;12.00;101478.00;;;;4999338;28;20461;-80
2022/03/28 00:35:24;;;;;;;15.13;13.13;;;11.90;1.00;11.90;101491.00;;;;5000082;28;20488;-80
2022/03/28 00:37:54;;;;;;;14.43;12.63;;;11.60;1.00;11.90;101486.00;;;;5000303;28;20453;-80
2022/03/28 00:40:27;;;;;;;14.70;13.17;;;11.60;1.00;12.00;101480.00;;;;5001750;28;20450;-80
2022/03/28 00:42:56;;;;;;;15.47;13.77;;;11.60;1.00;11.90;101477.00;;;;4996645;28;20481;-80
2022/03/28 00:45:24;;;;;;;15.60;13.27;;;11.50;1.00;11.90;101478.00;;;;4994569;28;20494;-80
2022/03/28 00:47:53;;;;;;;13.43;12.13;;;11.50;1.00;11.90;101479.00;;;;4997773;28;20461;-80
2022/03/28 00:50:23;;;;;;;14.20;12.70;;;11.50;1.00;11.80;101469.00;;;;4999722;28;20476;-80
2022/03/28 00:52:52;;;;;;;15.40;12.60;;;11.50;1.00;11.80;101481.00;;;;4994856;28;20459;-80
2022/03/28 00:55:20;;;;;;;13.23;11.83;;;11.60;1.00;11.70;101476.00;;;;4999090;28;20470;-80
2022/03/28 00:57:48;;;;;;;14.50;13.00;;;11.40;1.00;11.60;101460.00;;;;4995880;28;20470;-80
2022/03/28 01:00:18;;;;;;;13.60;12.10;;;11.30;1.00;11.60;101469.00;;;;4993806;28;20461;-80
2022/03/28 01:02:47;;;;;;;14.40;12.90;;;11.20;1.00;11.60;101457.00;;;;4998717;28;20478;-78
2022/03/28 01:05:17;;;;;;;13.93;12.53;;;11.20;1.00;11.60;101465.00;;;;4997155;28;20482;-79
2022/03/28 01:07:47;;;;;;;13.90;12.50;;;11.20;1.00;11.50;101459.00;;;;4994792;28;20466;-81
2022/03/28 01:10:15;;;;;;;14.67;12.37;;;11.20;1.00;11.60;101475.00;;;;5011842;28;21622;-78
2022/03/28 01:12:44;;;;;;;14.27;12.93;;;11.20;1.00;11.50;101467.00;;;;4975963;28;20459;-79
2022/03/28 01:15:16;;;;;;;14.20;12.70;;;11.10;1.00;11.40;101451.00;;;;5000638;28;20505;-79
2022/03/28 01:20:34;;;;;;;13.60;12.30;;;11.00;1.00;11.40;101463.00;;;;5015455;28;20534;-81
2022/03/28 01:23:04;;;;;;;14.87;13.40;;;11.00;1.00;11.30;101455.00;;;;5014788;28;20478;-79
2022/03/28 01:25:32;;;;;;;14.30;12.50;;;10.90;1.00;11.30;101441.00;;;;4999486;28;20477;-81
2022/03/28 01:28:02;;;;;;;14.83;13.53;;;11.00;1.00;11.30;101425.00;;;;4996638;28;20463;-78
2022/03/28 01:30:32;;;;;;;14.87;13.37;;;10.90;1.00;11.30;101444.00;;;;4993138;28;20456;-78
2022/03/28 01:33:02;;;;;;;15.03;13.20;;;11.00;1.00;11.20;101443.00;;;;4993841;28;20943;-78
2022/03/28 01:35:33;;;;;;;14.97;13.50;;;10.80;1.00;11.10;101443.00;;;;4991804;28;20486;-79
2022/03/28 01:38:04;;;;;;;15.17;13.63;;;11.00;1.00;11.10;101442.00;;;;4993734;28;21227;-82
2022/03/28 01:40:34;;;;;;;13.33;11.93;;;10.70;1.00;11.10;101452.00;;;;4994338;28;20477;-79
2022/03/28 01:43:03;;;;;;;13.93;12.60;;;10.70;1.00;11.10;101444.00;;;;4993629;28;21076;-79
2022/03/28 01:45:31;;;;;;;14.33;12.87;;;10.70;1.00;11.10;101433.00;;;;4993879;28;20814;-79
2022/03/28 01:48:00;;;;;;;16.03;13.60;;;10.70;1.00;11.10;101425.00;;;;4996220;28;20477;-80
2022/03/28 01:50:28;;;;;;;15.70;13.57;;;10.70;1.00;11.10;101435.00;;;;5005271;28;20461;-82
2022/03/28 01:52:56;;;;;;;14.00;12.50;;;10.70;1.00;11.00;101426.00;;;;5014836;28;20468;-82
2022/03/28 01:55:26;;;;;;;13.73;11.83;;;10.60;1.00;10.90;101428.00;;;;5017377;28;20553;-82
2022/03/28 01:57:55;;;;;;;16.37;12.10;;;10.60;1.00;10.90;101442.00;;;;5011923;28;20462;-82
2022/03/28 02:00:28;;;;;;;13.30;11.90;;;10.50;1.00;10.80;101428.00;;;;4991248;28;20500;-78
2022/03/28 02:02:56;;;;;;;15.80;12.50;;;10.50;1.00;10.80;101430.00;;;;5003281;28;20853;-78
2022/03/28 02:05:25;;;;;;;14.30;12.10;;;10.60;1.00;10.70;101420.00;;;;4999374;28;20486;-79
2022/03/28 02:07:53;;;;;;;13.90;12.37;;;10.40;1.00;10.60;101425.00;;;;5003101;28;20469;-79
2022/03/28 02:10:22;;;;;;;15.77;12.93;;;10.30;1.00;10.70;101421.00;;;;5006515;28;20462;-78
2022/03/28 02:12:53;;;;;;;16.67;12.93;;;10.30;1.00;10.60;101430.00;;;;5010427;28;20581;-79
2022/03/28 02:15:22;;;;;;;15.07;12.93;;;10.30;1.00;10.60;101417.00;;;;5013192;28;20470;-79
2022/03/28 02:17:50;;;;;;;14.57;12.37;;;10.20;1.00;10.60;101421.00;;;;5006702;28;20456;-79
2022/03/28 02:20:19;;;;;;;14.10;12.20;;;10.20;1.00;10.50;101422.00;;;;4991730;28;20500;-78
2022/03/28 02:22:48;;;;;;;15.43;13.00;;;10.20;1.00;10.50;101402.00;;;;4991877;28;20548;-79
2022/03/28 02:25:17;;;;;;;13.63;12.13;;;10.20;1.00;10.50;101406.00;;;;4993160;28;20508;-79
2022/03/28 02:27:45;;;;;;;13.70;12.20;;;10.20;1.00;10.50;101410.00;;;;5001522;28;20463;-79
2022/03/28 02:30:16;;;;;;;14.90;13.37;;;10.20;1.00;10.50;101414.00;;;;4999243;28;20462;-79
2022/03/28 02:32:44;;;;;;;14.00;12.60;;;10.20;1.00;10.50;101406.00;;;;4996935;28;21525;-79
2022/03/28 02:35:13;;;;;;;14.90;13.40;;;10.20;1.00;10.50;101400.00;;;;4994745;28;20481;-80
2022/03/28 02:37:41;;;;;;;14.73;12.60;;;10.10;1.00;10.50;101402.00;;;;4995433;28;20500;-79
2022/03/28 02:40:12;;;;;;;14.20;12.70;;;10.10;1.00;10.50;101428.00;;;;4994619;28;20459;-80
2022/03/28 02:42:40;;;;;;;14.63;12.20;;;10.10;1.00;10.40;101407.00;;;;4995027;28;20455;-80
2022/03/28 02:45:09;;;;;;;15.37;13.77;;;10.10;1.00;10.40;101416.00;;;;4996884;28;20497;-78
2022/03/28 02:47:39;;;;;;;13.77;12.37;;;10.10;1.00;10.30;101405.00;;;;4999000;28;20466;-80
2022/03/28 02:50:08;;;;;;;13.97;12.43;;;10.00;1.00;10.30;101401.00;;;;5003918;28;20465;-79
2022/03/28 02:52:37;;;;;;;15.03;13.53;;;9.90;1.00;10.30;101388.00;;;;5018855;28;20466;-79
2022/03/28 02:55:07;;;;;;;14.47;13.07;;;9.90;1.00;10.30;101385.00;;;;5013998;28;20504;-79
2022/03/28 02:57:36;;;;;;;14.47;13.17;;;9.90;1.00;10.20;101389.00;;;;5011168;28;20454;-78
2022/03/28 03:00:10;;;;;;;15.43;13.93;;;9.90;1.00;10.20;101381.00;;;;5014244;28;20458;-80
2022/03/28 03:02:42;;;;;;;15.93;14.10;;;9.90;1.00;10.20;101384.00;;;;5004835;28;20541;-79
2022/03/28 03:05:11;;;;;;;14.73;13.10;;;9.90;1.00;10.20;101386.00;;;;5005321;28;20514;-80
2022/03/28 03:07:40;;;;;;;14.67;13.17;;;9.80;1.00;10.20;101377.00;;;;5007757;28;20469;-79
2022/03/28 03:10:10;;;;;;;15.57;13.97;;;9.90;1.00;10.20;101372.00;;;;5001905;28;20474;-81
2022/03/28 03:12:38;;;;;;;16.17;14.37;;;9.80;1.00;10.20;101367.00;;;;5004640;28;20453;-82
2022/03/28 03:15:07;;;;;;;15.50;13.90;;;9.80;1.00;10.20;101368.00;;;;4999402;28;20496;-81
2022/03/28 03:17:37;;;;;;;14.97;13.47;;;9.80;1.00;10.10;101366.00;;;;5000973;28;20462;-79
2022/03/28 03:20:08;;;;;;;16.70;14.00;;;9.80;1.00;10.00;101370.00;;;;4995757;28;20482;-79
2022/03/28 03:22:36;;;;;;;16.03;14.33;;;9.70;1.00;10.00;101377.00;;;;4977044;28;20455;-80
2022/03/28 03:25:06;;;;;;;17.83;14.20;;;9.70;1.00;9.90;101379.00;;;;4996552;28;20492;-80
2022/03/28 03:27:38;;;;;;;16.30;14.50;;;9.60;1.00;9.90;101369.00;;;;4994726;28;20467;-79
2022/03/28 03:30:08;;;;;;;16.43;14.67;;;9.60;1.00;9.80;101361.00;;;;4999188;28;20459;-79
2022/03/28 03:32:37;;;;;;;21.57;15.03;;;9.50;1.00;9.80;101364.00;;;;4994879;28;20452;-80
2022/03/28 03:35:08;;;;;;;19.50;15.63;;;9.50;1.00;9.80;101379.00;;;;4998542;28;20489;-81
2022/03/28 03:37:36;;;;;;;16.73;15.00;;;9.40;1.00;9.70;101365.00;;;;4997799;28;20462;-78
2022/03/28 03:40:06;;;;;;;16.07;14.00;;;9.40;1.00;9.70;101370.00;;;;4995867;28;20450;-79
2022/03/28 03:42:35;;;;;;;17.50;15.80;;;9.30;1.00;9.60;101356.00;;;;4998001;28;20468;-79
2022/03/28 03:45:05;;;;;;;16.87;15.07;;;9.30;1.00;9.60;101366.00;;;;4992802;28;20521;-80
2022/03/28 03:47:33;;;;;;;16.40;14.33;;;9.30;1.00;9.50;101374.00;;;;4991936;28;20491;-79
2022/03/28 03:50:02;;;;;;;17.03;15.13;;;9.20;1.00;9.50;101336.00;;;;4994296;28;20466;-79
2022/03/28 03:52:31;;;;;;;19.80;16.07;;;9.10;1.00;9.50;101360.00;;;;4991109;28;20457;-80
2022/03/28 03:55:01;;;;;;;16.30;14.70;;;9.10;1.00;9.40;101343.00;;;;4991659;28;20529;-80
2022/03/28 03:57:29;;;;;;;17.63;15.73;;;9.10;1.00;9.40;101343.00;;;;4997639;28;20497;-78
2022/03/28 03:59:57;;;;;;;15.23;13.63;;;9.00;1.00;9.40;101331.00;;;;4996089;28;20472;-79
2022/03/28 04:02:39;;;;;;;17.57;15.70;;;9.00;1.00;9.30;101336.00;;;;5013032;28;20465;-79
2022/03/28 04:05:08;;;;;;;20.00;14.90;;;8.90;1.00;9.20;101335.00;;;;5005339;28;20493;-79
2022/03/28 04:07:38;;;;;;;16.60;14.73;;;8.90;1.00;9.30;101321.00;;;;4996589;28;20475;-79
2022/03/28 04:10:07;;;;;;;17.60;14.60;;;8.90;1.00;9.20;101319.00;;;;4990648;28;20469;-80
2022/03/28 04:12:35;;;;;;;21.70;15.37;;;8.90;1.00;9.20;101326.00;;;;4996646;28;20457;-79
2022/03/28 04:15:05;;;;;;;20.90;14.43;;;8.90;1.00;9.20;101319.00;;;;4989676;28;20484;-79
2022/03/28 04:17:40;;;;;;;17.80;15.80;;;8.90;1.00;9.30;101323.00;;;;4987112;28;20473;-79
2022/03/28 04:20:11;;;;;;;18.50;15.70;;;8.90;1.00;9.30;101329.00;;;;4990403;28;20457;-79
2022/03/28 04:22:41;;;;;;;19.50;15.83;;;8.90;1.00;9.20;101320.00;;;;4986142;28;20447;-80
2022/03/28 04:25:11;;;;;;;20.60;16.07;;;8.90;1.00;9.20;101318.00;;;;4991427;28;20478;-80
2022/03/28 04:27:39;;;;;;;20.80;16.13;;;8.80;1.00;9.20;101315.00;;;;4992796;28;20450;-80
2022/03/28 04:30:10;;;;;;;18.53;15.83;;;8.80;1.00;9.10;101310.00;;;;4992348;28;20458;-83
2022/03/28 04:32:39;;;;;;;27.23;16.30;;;8.80;1.00;9.10;101313.00;;;;4993663;28;21053;-82
2022/03/28 04:35:10;;;;;;;29.07;16.90;;;8.90;1.00;9.10;101307.00;;;;4990352;28;20529;-83
2022/03/28 04:37:42;;;;;;;20.53;17.07;;;8.80;1.00;9.10;101311.00;;;;5004428;28;20458;-80
2022/03/28 04:40:13;;;;;;;18.07;16.07;;;8.80;1.00;9.10;101300.00;;;;5008239;28;21018;-82
2022/03/28 04:42:42;;;;;;;19.23;16.03;;;8.70;1.00;9.10;101295.00;;;;5002427;28;20520;-79
2022/03/28 04:45:11;;;;;;;20.67;17.23;;;8.80;1.00;9.20;101311.00;;;;5014564;28;20552;-83
2022/03/28 04:47:39;;;;;;;18.53;16.33;;;8.80;1.00;9.10;101308.00;;;;5015203;28;20457;-84
2022/03/28 04:50:09;;;;;;;20.10;16.93;;;8.80;1.00;9.10;101282.00;;;;5012357;28;20478;-82
2022/03/28 04:52:38;;;;;;;18.57;16.27;;;8.70;1.00;9.10;101297.00;;;;5006918;28;20490;-83
2022/03/28 04:55:09;;;;;;;22.23;16.80;;;8.70;1.00;9.10;101305.00;;;;5011441;28;20491;-83
2022/03/28 04:57:37;;;;;;;20.70;16.47;;;8.70;1.00;9.00;101310.00;;;;5013020;28;20538;-83
2022/03/28 05:00:09;;;;;;;21.20;16.50;;;8.60;1.00;8.90;101308.00;;;;5009620;28;20462;-84
2022/03/28 05:02:38;;;;;;;23.33;17.40;;;8.60;1.00;8.80;101311.00;;;;5009448;28;20472;-82
2022/03/28 05:05:10;;;;;;;21.33;16.97;;;8.60;1.00;8.90;101298.00;;;;5008528;28;20486;-81
2022/03/28 05:07:38;;;;;;;23.33;17.60;;;8.50;1.00;8.90;101315.00;;;;5006848;28;20552;-82
2022/03/28 05:10:10;;;;;;;18.40;16.40;;;8.50;1.00;8.90;101313.00;;;;5009203;28;20466;-79
2022/03/28 05:12:38;;;;;;;17.83;15.80;;;8.60;1.00;9.00;101305.00;;;;4999923;28;20466;-79
2022/03/28 05:15:08;;;;;;;23.53;15.97;;;8.60;1.00;8.90;101304.00;;;;5002809;28;20502;-79
2022/03/28 05:17:37;;;;;;;18.93;16.70;;;8.60;1.00;9.00;101328.00;;;;4997969;28;20451;-79
2022/03/28 05:20:08;;;;;;;19.50;17.50;;;8.60;1.00;9.00;101307.00;;;;4995874;28;20837;-77
2022/03/28 05:22:38;;;;;;;24.80;17.47;;;8.60;1.00;8.90;101288.00;;;;4995899;28;20468;-79
2022/03/28 05:25:10;;;;;;;24.63;17.47;;;8.60;1.00;9.00;101309.00;;;;5003729;28;20488;-81
2022/03/28 05:27:45;;;;;;;22.30;18.13;;;8.60;1.00;9.10;101309.00;;;;5003747;28;20462;-83
2022/03/28 05:30:14;;;;;;;22.30;16.43;;;8.70;1.00;9.20;101289.00;;;;5001140;28;20454;-79
2022/03/28 05:32:43;;;;;;;21.53;17.03;;;8.80;1.00;9.20;101316.00;;;;4999924;28;20450;-79
2022/03/28 05:35:11;;;;;;;22.20;16.37;;;8.80;1.00;9.20;101308.00;;;;5003290;28;20508;-79
2022/03/28 05:37:41;;;;;;;21.43;17.60;;;8.80;1.00;9.20;101307.00;;;;5002160;28;20469;-81
2022/03/28 05:40:13;;;;;;;21.87;16.77;;;8.80;1.00;9.30;101299.00;;;;5002778;28;20462;-83
2022/03/28 05:42:42;;;;;;;22.23;15.70;;;8.90;1.00;9.30;101306.00;;;;5010020;28;20461;-79
2022/03/28 05:45:12;;;;;;;33.47;17.27;;;8.90;1.00;9.30;101304.00;;;;5007496;28;20505;-79
2022/03/28 05:47:41;;;;;;;20.90;16.80;;;8.90;1.00;9.30;101298.00;;;;5009284;28;20474;-82
2022/03/28 05:50:10;;;;;;;24.27;17.57;;;8.90;1.00;9.40;101302.00;;;;5007992;28;20489;-78
2022/03/28 05:52:39;;;;;;;29.27;16.90;;;9.00;1.00;9.40;101304.00;;;;5008499;28;20460;-79
2022/03/28 05:55:09;;;;;;;22.70;17.13;;;9.00;1.00;9.50;101307.00;;;;5006016;28;21497;-80
2022/03/28 05:57:39;;;;;;;26.00;17.43;;;9.10;1.00;9.60;101312.00;;;;5008545;28;20460;-80
2022/03/28 06:00:09;;;;;;;27.87;16.50;;;9.30;1.00;9.70;101295.00;;;;5001155;28;20454;-79
2022/03/28 06:02:41;;;;;;;27.73;17.83;;;9.30;1.00;9.80;101320.00;;;;4997953;28;21175;-80
2022/03/28 06:05:12;;;;;;;23.97;18.30;;;9.30;1.00;9.80;101302.00;;;;4998722;28;20509;-79
2022/03/28 06:07:40;;;;;;;25.57;19.13;;;9.40;1.00;9.90;101315.00;;;;4998791;28;20572;-81
2022/03/28 06:10:10;;;;;;;23.27;19.20;;;9.50;1.00;10.10;101301.00;;;;5000742;28;20450;-78
2022/03/28 06:12:39;;;;;;;30.50;18.47;;;9.60;1.00;10.10;101313.00;;;;4995346;28;20461;-78
2022/03/28 06:15:09;;;;;;;33.33;18.27;;;9.70;1.00;10.10;101320.00;;;;5008582;28;20470;-79
2022/03/28 06:17:38;;;;;;;26.43;18.80;;;9.70;1.00;10.30;101320.00;;;;5000948;28;20458;-82
2022/03/28 06:20:08;;;;;;;28.33;19.13;;;9.90;1.00;10.30;101305.00;;;;4997681;28;20549;-79
2022/03/28 06:22:37;;;;;;;24.40;18.17;;;9.90;1.00;10.50;101320.00;;;;4995742;28;20447;-82
2022/03/28 06:25:08;;;;;;;39.90;18.73;;;10.00;1.00;10.60;101327.00;;;;5008695;28;20512;-78
2022/03/28 06:27:58;;;;;;;29.17;18.27;;;10.10;1.00;10.70;101308.00;;;;5004298;28;20496;-81
2022/03/28 06:30:28;;;;;;;28.83;17.10;;;10.50;1.00;10.70;101308.00;;;;5003097;28;20490;-81
2022/03/28 06:32:56;;;;;;;24.43;16.67;;;10.30;1.00;10.80;101312.00;;;;5000779;28;20459;-81
2022/03/28 06:35:24;;;;;;;19.60;17.43;;;10.40;1.00;10.90;101306.00;;;;5000558;28;20485;-79
2022/03/28 06:37:53;;;;;;;17.80;15.13;;;10.50;1.00;11.10;101306.00;;;;4998937;28;20568;-80
2022/03/28 06:40:23;;;;;;;26.53;18.13;;;10.60;1.00;11.10;101306.00;;;;4998281;28;20523;-79
2022/03/28 06:42:53;;;;;;;23.70;16.70;;;10.70;1.00;11.20;101305.00;;;;4998176;28;20459;-82
2022/03/28 06:45:23;;;;;;;22.00;15.83;;;10.70;1.00;11.30;101294.00;;;;4997068;28;20853;-79
2022/03/28 06:47:52;;;;;;;20.80;14.90;;;11.00;1.00;11.40;101276.00;;;;5013620;28;20459;-79
2022/03/28 06:50:24;;;;;;;25.90;16.43;;;11.00;1.00;11.50;101289.00;;;;4995524;28;20465;-80
2022/03/28 06:52:54;;;;;;;44.23;16.33;;;11.20;1.00;11.50;101292.00;;;;4994237;28;20454;-79
2022/03/28 06:55:23;;;;;;;31.97;14.33;;;11.20;1.00;11.50;101271.00;;;;5003259;28;20658;-79
2022/03/28 06:57:51;;;;;;;17.53;14.80;;;11.20;1.00;11.70;101285.00;;;;4998092;28;21435;-79
2022/03/28 07:00:22;;;;;;;17.33;14.47;;;11.30;1.00;11.70;101252.00;;;;4997637;28;20565;-79
2022/03/28 07:02:50;;;;;;;17.03;13.50;;;11.40;1.00;11.80;101266.00;;;;4997117;28;20457;-79
2022/03/28 07:05:19;;;;;;;15.90;13.47;;;11.60;1.00;11.90;101283.00;;;;4997088;28;20489;-79
2022/03/28 07:07:49;;;;;;;16.60;14.20;;;11.60;1.00;12.00;101294.00;;;;5002978;28;20471;-79
2022/03/28 07:10:20;;;;;;;16.73;14.20;;;11.70;1.00;12.10;101281.00;;;;5003046;28;20446;-79
2022/03/28 07:12:51;;;;;;;16.30;14.70;;;11.80;1.00;12.10;101273.00;;;;4996691;28;21050;-79
2022/03/28 07:15:19;;;;;;;16.70;14.50;;;11.90;1.00;12.20;101279.00;;;;4997949;28;20495;-80
2022/03/28 07:17:54;;;;;;;15.73;14.13;;;11.90;1.00;12.30;101273.00;;;;4999605;28;20489;-79
2022/03/28 07:20:24;;;;;;;20.70;16.83;;;12.00;1.00;12.30;101266.00;;;;4999956;28;20477;-79
2022/03/28 07:22:53;;;;;;;17.60;14.27;;;12.00;1.00;12.30;101270.00;;;;4994695;28;21046;-79
2022/03/28 07:25:23;;;;;;;14.97;13.50;;;12.10;1.00;12.50;101280.00;;;;5003817;28;20468;-79
2022/03/28 07:27:52;;;;;;;17.60;13.83;;;12.30;1.00;12.70;101268.00;;;;5003294;28;20482;-78
2022/03/28 07:30:23;;;;;;;17.50;13.90;;;12.40;1.00;12.80;101274.00;;;;5005496;28;20442;-78
2022/03/28 07:32:53;;;;;;;14.07;12.67;;;12.70;1.00;12.80;101249.00;;;;5015442;28;20463;-78
2022/03/28 07:35:21;;;;;;;19.10;14.77;;;12.60;1.00;12.80;101262.00;;;;5002182;28;20481;-79
2022/03/28 07:37:51;;;;;;;13.93;12.30;;;12.60;1.00;12.90;101268.00;;;;5003438;28;20979;-79
2022/03/28 07:40:20;;;;;;;15.63;13.40;;;12.70;1.00;12.90;101249.00;;;;4997260;28;20488;-79
2022/03/28 07:42:51;;;;;;;19.43;14.67;;;12.80;1.00;12.90;101251.00;;;;5015552;28;20477;-79
2022/03/28 07:45:20;;;;;;;16.07;13.83;;;12.70;1.00;13.00;101245.00;;;;4991677;28;20573;-79
2022/03/28 07:47:48;;;;;;;14.80;13.20;;;12.80;1.00;13.00;101262.00;;;;4971713;28;20479;-78
2022/03/28 07:50:18;;;;;;;17.53;14.13;;;12.80;1.00;13.00;101238.00;;;;4987397;28;20457;-79
2022/03/28 07:52:46;;;;;;;17.30;14.70;;;12.80;1.00;13.10;101241.00;;;;4987375;28;21070;-78
2022/03/28 07:55:15;;;;;;;14.93;13.33;;;12.90;1.00;13.20;101244.00;;;;4991459;28;21011;-78
2022/03/28 07:57:44;;;;;;;15.83;12.87;;;13.20;1.00;13.30;101241.00;;;;4995450;28;20452;-78
2022/03/28 08:00:17;;;;;;;16.97;12.17;;;13.10;1.00;13.40;101236.00;;;;4998138;28;21635;-79
2022/03/28 08:02:52;;;;;;;14.47;13.07;;;13.20;1.00;13.60;101237.00;;;;4992912;28;20446;-78
2022/03/28 08:05:22;;;;;;;17.77;13.70;;;13.40;1.00;13.70;101251.00;;;;4994469;28;20485;-79
2022/03/28 08:07:51;;;;;;;14.97;12.73;;;13.60;1.00;13.80;101242.00;;;;4990611;28;20529;-79
2022/03/28 08:10:20;;;;;;;21.63;15.27;;;13.70;1.00;13.80;101243.00;;;;4986406;28;20458;-80
2022/03/28 08:12:49;;;;;;;16.70;14.63;;;13.70;1.00;13.80;101243.00;;;;4989322;28;20454;-78
2022/03/28 08:15:18;;;;;;;16.03;14.40;;;13.70;1.00;14.00;101238.00;;;;4987216;28;20493;-80
2022/03/28 08:17:47;;;;;;;18.63;15.50;;;13.80;1.00;14.10;101227.00;;;;4976053;28;20490;-79
2022/03/28 08:20:15;;;;;;;19.80;16.30;;;14.20;1.00;14.20;101233.00;;;;5001293;28;21018;-78
2022/03/28 08:22:49;;;;;;;17.37;15.77;;;14.10;1.00;14.30;101226.00;;;;4985581;28;20950;-79
2022/03/28 08:25:20;;;;;;;18.37;16.50;;;14.20;1.00;14.30;101217.00;;;;4993808;28;20474;-78
2022/03/28 08:27:50;;;;;;;19.30;17.13;;;14.30;1.00;14.40;101236.00;;;;4986645;28;21678;-77
2022/03/28 08:30:18;;;;;;;17.23;15.40;;;14.30;1.00;14.40;101228.00;;;;4987920;28;21410;-77
2022/03/28 08:32:47;;;;;;;20.33;15.73;;;14.30;1.00;14.50;101218.00;;;;4985282;28;20473;-78
2022/03/28 08:35:16;;;;;;;18.10;16.20;;;14.40;1.00;14.50;101221.00;;;;4986781;28;20481;-78
2022/03/28 08:37:46;;;;;;;19.87;17.40;;;14.50;1.00;14.60;101221.00;;;;4976536;28;20546;-78
2022/03/28 08:40:15;;;;;;;16.00;14.00;;;14.50;1.00;14.70;101216.00;;;;4998458;28;20458;-77
2022/03/28 08:42:44;;;;;;;16.23;14.53;;;14.60;1.00;14.80;101216.00;;;;5002674;28;20804;-78
2022/03/28 08:45:14;;;;;;;17.30;15.17;;;14.70;1.00;14.90;101211.00;;;;4995993;28;20484;-78
2022/03/28 08:47:47;;;;;;;17.17;14.33;;;14.80;1.00;14.90;101204.00;;;;4996738;28;20485;-78
2022/03/28 08:50:36;;;;;;;16.20;14.60;;;14.90;1.00;14.90;101207.00;;;;4995740;28;20474;-77
2022/03/28 08:53:06;;;;;;;19.67;14.43;;;15.00;1.00;15.00;101202.00;;;;4992590;28;20462;-77
2022/03/28 08:55:35;;;;;;;21.17;15.57;;;15.10;1.00;15.10;101194.00;;;;5016925;28;20488;-79
2022/03/28 08:58:03;;;;;;;19.30;15.77;;;15.10;1.00;15.10;101202.00;;;;5003423;28;20452;-77
2022/03/28 09:00:32;;;;;;;18.97;15.67;;;14.90;1.00;15.20;101201.00;;;;4998221;28;20997;-77
2022/03/28 09:03:00;;;;;;;21.57;14.37;;;15.20;1.00;15.30;101190.00;;;;5000381;28;20464;-77
2022/03/28 09:05:31;;;;;;;18.90;14.80;;;15.30;1.00;15.30;101190.00;;;;4996541;28;20827;-77
2022/03/28 09:07:59;;;;;;;17.53;14.60;;;15.30;1.00;15.30;101185.00;;;;4997885;28;20489;-78
2022/03/28 09:10:32;;;;;;;24.13;13.33;;;15.30;1.00;15.50;101177.00;;;;4998352;28;20459;-78
2022/03/28 09:13:04;;;;;;;16.23;13.83;;;15.50;1.00;15.50;101185.00;;;;4990882;28;20458;-77
2022/03/28 09:15:45;;;;;;;18.77;15.40;;;15.60;1.00;15.60;101194.00;;;;4993789;28;20481;-77
2022/03/28 09:18:35;;;;;;;16.87;15.10;;;15.70;1.00;15.70;101183.00;;;;4989388;28;20469;-77
2022/03/28 09:21:06;;;;;;;16.30;14.23;;;15.80;1.00;15.70;101177.00;;;;4991612;28;20462;-78
2022/03/28 09:23:38;;;;;;;17.57;14.47;;;15.70;1.00;15.80;101184.00;;;;5007562;28;20458;-78
2022/03/28 09:26:12;;;;;;;18.93;15.30;;;15.80;1.00;15.90;101185.00;;;;5012961;28;20504;-78
2022/03/28 09:28:47;;;;;;;18.47;14.50;;;15.90;1.00;16.00;101170.00;;;;5006473;28;20481;-78
2022/03/28 09:31:25;;;;;;;16.83;15.13;;;16.00;1.00;16.00;101168.00;;;;5004671;28;21653;-77
2022/03/28 09:34:10;;;;;;;18.77;14.93;;;16.10;1.00;16.10;101165.00;;;;4996481;28;20449;-78
2022/03/28 09:36:48;;;;;;;20.90;15.53;;;16.20;1.00;16.20;101166.00;;;;4999516;28;20484;-79
2022/03/28 09:39:20;;;;;;;15.57;13.27;;;16.40;1.00;16.30;101154.00;;;;4998729;28;20466;-78
2022/03/28 09:42:01;;;;;;;13.93;12.30;;;16.60;1.00;16.40;101145.00;;;;5000742;28;20442;-79
2022/03/28 09:44:38;;;;;;;15.20;13.70;;;16.60;1.00;16.50;101153.00;;;;4999246;28;20917;-79
2022/03/28 09:47:09;;;;;;;19.50;16.07;;;16.60;1.00;16.50;101130.00;;;;5004551;28;20471;-79
2022/03/28 09:49:38;;;;;;;16.10;14.00;;;16.70;1.00;16.60;101145.00;;;;4999038;28;21036;-78
2022/03/28 09:52:10;;;;;;;16.93;14.60;;;16.80;1.00;16.70;101148.00;;;;5003280;28;20842;-78
2022/03/28 09:54:51;;;;;;;17.60;15.17;;;16.90;1.00;16.80;101128.00;;;;5010431;28;20480;-77
2022/03/28 09:57:23;;;;;;;17.37;14.50;;;16.90;1.00;16.90;101125.00;;;;5022569;28;20457;-77
2022/03/28 09:59:53;;;;;;;17.23;13.97;;;17.00;1.00;16.90;101130.00;;;;5027271;28;20472;-78
2022/03/28 10:02:25;;;;;;;15.17;13.40;;;17.10;1.00;17.10;101127.00;;;;5019020;28;20459;-79
2022/03/28 10:04:57;;;;;;;15.30;13.70;;;17.20;1.00;17.10;101140.00;;;;5004992;28;20477;-78
2022/03/28 10:07:26;;;;;;;15.03;13.57;;;17.40;1.00;17.30;101126.00;;;;5020220;28;20472;-77
2022/03/28 10:09:54;;;;;;;13.90;12.50;;;17.50;1.00;17.40;101122.00;;;;5018141;28;20513;-77
2022/03/28 10:12:25;;;;;;;14.70;13.30;;;17.50;1.00;17.40;101124.00;;;;5004643;28;20944;-76
2022/03/28 10:14:57;;;;;;;13.27;11.97;;;17.60;1.00;17.50;101111.00;;;;5006169;28;20474;-77
2022/03/28 10:17:30;;;;;;;13.80;12.50;;;17.70;1.00;17.70;101116.00;;;;5008225;28;20443;-78
2022/03/28 10:20:00;;;;;;;14.13;12.73;;;17.90;1.00;17.70;101104.00;;;;5008887;28;20525;-78
2022/03/28 10:22:52;;;;;;;13.40;12.10;;;18.00;1.00;17.80;101095.00;;;;5013516;28;20458;-79
2022/03/28 10:25:24;;;;;;;13.90;12.50;;;18.00;1.00;17.90;101104.00;;;;4995222;28;20481;-78
2022/03/28 10:27:54;;;;;;;14.27;13.03;;;18.10;1.00;18.00;101080.00;;;;4993833;28;20486;-78
2022/03/28 10:30:27;;;;;;;13.97;12.60;;;18.20;1.00;18.10;101086.00;;;;4995058;28;20459;-79
2022/03/28 10:33:09;;;;;;;14.67;13.00;;;18.30;1.00;18.20;101076.00;;;;4990677;28;20561;-79
2022/03/28 10:35:38;;;;;;;14.20;12.80;;;18.50;1.00;18.20;101079.00;;;;4992331;28;20473;-80
2022/03/28 10:38:18;;;;;;;13.60;12.20;;;18.40;1.00;18.30;101066.00;;;;5000264;28;20459;-79
2022/03/28 10:40:55;;;;;;;12.83;11.60;;;18.60;1.00;18.40;101068.00;;;;4998794;28;20457;-78
2022/03/28 10:43:28;;;;;;;17.77;13.20;;;18.60;1.00;18.50;101047.00;;;;4998047;28;20463;-78
2022/03/28 10:45:58;;;;;;;14.67;11.73;;;18.80;1.00;18.60;101056.00;;;;4996099;28;20479;-80
2022/03/28 10:48:39;;;;;;;16.17;11.80;;;18.90;1.00;18.70;101056.00;;;;4997031;28;20478;-79
2022/03/28 10:51:11;;;;;;;13.77;12.40;;;18.90;1.00;18.70;101047.00;;;;4996958;28;20454;-78
2022/03/28 10:53:43;;;;;;;13.43;11.97;;;19.00;1.00;18.80;101049.00;;;;4991992;28;20537;-79
2022/03/28 10:56:19;;;;;;;14.67;13.00;;;19.10;1.00;18.90;101034.00;;;;5001249;28;20474;-79
2022/03/28 10:58:52;;;;;;;14.77;13.23;;;19.10;1.00;19.00;101046.00;;;;5007318;28;20458;-79
2022/03/28 11:01:33;;;;;;;13.63;12.07;;;19.20;1.00;19.10;101024.00;;;;4999708;28;20532;-79